sensor_id;sensor_type;location;lat;lon;timestamp;pressure;altitude;pressure_sealevel;temperature;humidity
69570;BME280;56781;42.292;23.146;2022-08-11T00:00:40;95694.34;;;15.69;100.00
69570;BME280;56781;42.292;23.146;2022-08-11T00:03:12;95689.84;;;15.73;100.00
69570;BME280;56781;42.292;23.146;2022-08-11T00:05:49;95686.84;;;15.66;100.00
69570;BME280;56781;42.292;23.146;2022-08-11T00:08:25;95659.72;;;15.62;100.00
69570;BME280;56781;42.292;23.146;2022-08-11T00:10:58;95658.66;;;15.55;100.00
69570;BME280;56781;42.292;23.146;2022-08-11T00:13:36;95662.63;;;15.57;100.00
69570;BME280;56781;42.292;23.146;2022-08-11T00:16:12;95674.34;;;15.61;100.00
69570;BME280;56781;42.292;23.146;2022-08-11T00:18:41;95677.50;;;15.72;100.00
69570;BME280;56781;42.292;23.146;2022-08-11T00:21:10;95649.72;;;15.63;100.00
69570;BME280;56781;42.292;23.146;2022-08-11T00:23:46;95670.75;;;15.78;100.00
69570;BME280;56781;42.292;23.146;2022-08-11T00:26:18;95653.63;;;15.74;100.00
69570;BME280;56781;42.292;23.146;2022-08-11T00:28:46;95680.03;;;15.89;100.00
69570;BME280;56781;42.292;23.146;2022-08-11T00:31:25;95604.19;;;15.40;100.00
69570;BME280;56781;42.292;23.146;2022-08-11T00:33:54;95640.59;;;15.76;100.00
69570;BME280;56781;42.292;23.146;2022-08-11T00:36:26;95616.41;;;15.38;100.00
69570;BME280;56781;42.292;23.146;2022-08-11T00:39:03;95687.97;;;15.65;100.00
69570;BME280;56781;42.292;23.146;2022-08-11T00:41:35;95687.50;;;15.63;100.00
69570;BME280;56781;42.292;23.146;2022-08-11T00:44:13;95664.78;;;15.43;100.00
69570;BME280;56781;42.292;23.146;2022-08-11T00:47:04;95641.41;;;15.26;100.00
69570;BME280;56781;42.292;23.146;2022-08-11T01:30:56;95649.25;;;14.80;100.00
69570;BME280;56781;42.292;23.146;2022-08-11T01:45:09;95666.19;;;14.81;100.00
69570;BME280;56781;42.292;23.146;2022-08-11T01:48:01;95637.44;;;14.55;100.00
69570;BME280;56781;42.292;23.146;2022-08-11T01:56:41;95672.31;;;14.60;100.00
69570;BME280;56781;42.292;23.146;2022-08-11T02:05:02;95642.72;;;14.26;100.00
69570;BME280;56781;42.292;23.146;2022-08-11T02:10:43;95679.00;;;14.19;100.00
69570;BME280;56781;42.292;23.146;2022-08-11T02:13:39;95645.59;;;14.12;100.00
69570;BME280;56781;42.292;23.146;2022-08-11T02:16:32;95646.84;;;14.23;100.00
69570;BME280;56781;42.292;23.146;2022-08-11T02:22:09;95647.81;;;14.10;100.00
69570;BME280;56781;42.292;23.146;2022-08-11T02:25:03;95676.94;;;14.34;100.00
69570;BME280;56781;42.292;23.146;2022-08-11T02:27:46;95669.50;;;14.31;100.00
69570;BME280;56781;42.292;23.146;2022-08-11T02:30:16;95682.44;;;14.46;100.00
69570;BME280;56781;42.292;23.146;2022-08-11T02:33:23;95662.81;;;14.37;100.00
69570;BME280;56781;42.292;23.146;2022-08-11T02:36:21;95674.34;;;14.63;100.00
69570;BME280;56781;42.292;23.146;2022-08-11T02:38:59;95639.50;;;14.41;100.00
69570;BME280;56781;42.292;23.146;2022-08-11T02:51:31;95669.22;;;14.79;100.00
69570;BME280;56781;42.292;23.146;2022-08-11T02:54:09;95647.72;;;14.62;100.00
69570;BME280;56781;42.292;23.146;2022-08-11T02:56:57;95650.59;;;14.57;100.00
69570;BME280;56781;42.292;23.146;2022-08-11T03:10:22;95665.34;;;14.42;100.00
69570;BME280;56781;42.292;23.146;2022-08-11T03:13:22;95650.50;;;14.18;100.00
69570;BME280;56781;42.292;23.146;2022-08-11T03:16:24;95673.28;;;14.30;100.00
69570;BME280;56781;42.292;23.146;2022-08-11T03:19:25;95674.22;;;14.34;100.00
69570;BME280;56781;42.292;23.146;2022-08-11T03:22:01;95676.16;;;14.16;100.00
69570;BME280;56781;42.292;23.146;2022-08-11T03:25:04;95668.72;;;14.04;100.00
69570;BME280;56781;42.292;23.146;2022-08-11T03:27:47;95690.06;;;14.27;100.00
69570;BME280;56781;42.292;23.146;2022-08-11T03:33:43;95682.81;;;14.01;100.00
69570;BME280;56781;42.292;23.146;2022-08-11T03:40:32;95692.94;;;13.69;100.00
69570;BME280;56781;42.292;23.146;2022-08-11T03:52:28;95672.97;;;13.36;100.00
69570;BME280;56781;42.292;23.146;2022-08-11T03:58:13;95681.03;;;13.44;100.00
69570;BME280;56781;42.292;23.146;2022-08-11T04:06:40;95680.78;;;13.98;100.00
69570;BME280;56781;42.292;23.146;2022-08-11T04:12:17;95644.97;;;13.80;100.00
69570;BME280;56781;42.292;23.146;2022-08-11T04:15:29;95696.88;;;14.24;100.00
69570;BME280;56781;42.292;23.146;2022-08-11T04:24:26;95696.06;;;14.50;100.00
69570;BME280;56781;42.292;23.146;2022-08-11T04:30:21;95705.56;;;14.65;100.00
69570;BME280;56781;42.292;23.146;2022-08-11T04:35:51;95696.09;;;14.97;100.00
69570;BME280;56781;42.292;23.146;2022-08-11T04:41:52;95706.03;;;15.14;100.00
69570;BME280;56781;42.292;23.146;2022-08-11T04:56:39;95673.09;;;15.59;100.00
69570;BME280;56781;42.292;23.146;2022-08-11T04:59:42;95680.00;;;15.77;100.00
69570;BME280;56781;42.292;23.146;2022-08-11T05:02:39;95697.81;;;16.11;100.00
69570;BME280;56781;42.292;23.146;2022-08-11T05:05:51;95685.63;;;16.26;100.00
69570;BME280;56781;42.292;23.146;2022-08-11T05:11:34;95698.28;;;16.80;100.00
69570;BME280;56781;42.292;23.146;2022-08-11T05:16:59;95663.75;;;16.86;100.00
69570;BME280;56781;42.292;23.146;2022-08-11T05:19:48;95667.56;;;17.09;97.00
69570;BME280;56781;42.292;23.146;2022-08-11T05:22:33;95696.97;;;17.47;94.07
69570;BME280;56781;42.292;23.146;2022-08-11T05:25:29;95689.56;;;17.57;93.76
69570;BME280;56781;42.292;23.146;2022-08-11T05:28:41;95685.44;;;17.87;93.71
69570;BME280;56781;42.292;23.146;2022-08-11T05:31:50;95683.91;;;18.14;92.67
69570;BME280;56781;42.292;23.146;2022-08-11T05:34:51;95688.94;;;18.28;93.17
69570;BME280;56781;42.292;23.146;2022-08-11T05:37:24;95655.13;;;18.38;94.16
69570;BME280;56781;42.292;23.146;2022-08-11T05:40:08;95681.63;;;18.73;94.27
69570;BME280;56781;42.292;23.146;2022-08-11T05:43:01;95677.81;;;18.90;92.56
69570;BME280;56781;42.292;23.146;2022-08-11T05:46:01;95687.53;;;19.07;91.13
69570;BME280;56781;42.292;23.146;2022-08-11T05:48:48;95666.84;;;19.02;90.37
69570;BME280;56781;42.292;23.146;2022-08-11T05:51:39;95630.09;;;18.89;90.19
69570;BME280;56781;42.292;23.146;2022-08-11T05:54:39;95656.59;;;19.27;89.40
69570;BME280;56781;42.292;23.146;2022-08-11T05:57:35;95624.56;;;19.17;88.92
69570;BME280;56781;42.292;23.146;2022-08-11T06:00:20;95663.72;;;19.67;86.30
69570;BME280;56781;42.292;23.146;2022-08-11T06:02:55;95651.66;;;19.48;87.45
69570;BME280;56781;42.292;23.146;2022-08-11T06:05:33;95657.19;;;19.68;86.09
69570;BME280;56781;42.292;23.146;2022-08-11T06:08:11;95678.72;;;19.96;85.51
69570;BME280;56781;42.292;23.146;2022-08-11T06:10:41;95646.16;;;19.80;86.47
69570;BME280;56781;42.292;23.146;2022-08-11T06:13:10;95636.03;;;19.77;85.11
69570;BME280;56781;42.292;23.146;2022-08-11T06:15:47;95644.41;;;20.07;84.34
69570;BME280;56781;42.292;23.146;2022-08-11T06:18:15;95654.75;;;20.60;83.72
69570;BME280;56781;42.292;23.146;2022-08-11T06:20:51;95627.06;;;20.77;81.24
69570;BME280;56781;42.292;23.146;2022-08-11T06:23:19;95666.94;;;21.12;79.87
69570;BME280;56781;42.292;23.146;2022-08-11T06:25:53;95671.56;;;21.35;80.04
69570;BME280;56781;42.292;23.146;2022-08-11T06:28:34;95668.69;;;21.47;79.13
69570;BME280;56781;42.292;23.146;2022-08-11T06:31:16;95671.13;;;21.56;79.14
69570;BME280;56781;42.292;23.146;2022-08-11T06:36:34;95650.47;;;21.81;78.18
69570;BME280;56781;42.292;23.146;2022-08-11T06:42:04;95633.19;;;22.00;76.43
69570;BME280;56781;42.292;23.146;2022-08-11T06:44:55;95667.84;;;22.30;73.04
69570;BME280;56781;42.292;23.146;2022-08-11T06:47:26;95618.16;;;22.13;76.31
69570;BME280;56781;42.292;23.146;2022-08-11T06:49:55;95638.06;;;22.51;76.70
69570;BME280;56781;42.292;23.146;2022-08-11T06:52:44;95652.50;;;22.93;72.58
69570;BME280;56781;42.292;23.146;2022-08-11T06:55:20;95643.16;;;22.94;73.18
69570;BME280;56781;42.292;23.146;2022-08-11T06:58:27;95651.03;;;22.99;71.96
69570;BME280;56781;42.292;23.146;2022-08-11T07:01:18;95599.69;;;23.19;69.37
69570;BME280;56781;42.292;23.146;2022-08-11T07:03:53;95641.00;;;23.69;68.85
69570;BME280;56781;42.292;23.146;2022-08-11T07:19:36;95629.94;;;24.17;64.42
69570;BME280;56781;42.292;23.146;2022-08-11T07:22:40;95636.78;;;23.75;66.17
69570;BME280;56781;42.292;23.146;2022-08-11T07:25:28;95611.78;;;23.73;66.48
69570;BME280;56781;42.292;23.146;2022-08-11T07:28:21;95628.28;;;23.98;68.54
69570;BME280;56781;42.292;23.146;2022-08-11T07:31:10;95607.19;;;23.99;66.03
69570;BME280;56781;42.292;23.146;2022-08-11T07:33:44;95625.13;;;23.89;66.19
69570;BME280;56781;42.292;23.146;2022-08-11T07:36:32;95604.09;;;24.00;67.58
69570;BME280;56781;42.292;23.146;2022-08-11T07:39:08;95626.41;;;24.13;65.25
69570;BME280;56781;42.292;23.146;2022-08-11T07:41:37;95625.75;;;24.45;64.59
69570;BME280;56781;42.292;23.146;2022-08-11T07:44:05;95619.53;;;24.66;65.00
69570;BME280;56781;42.292;23.146;2022-08-11T07:46:39;95602.72;;;24.64;68.68
69570;BME280;56781;42.292;23.146;2022-08-11T07:49:47;95614.47;;;25.07;61.50
69570;BME280;56781;42.292;23.146;2022-08-11T07:52:35;95569.09;;;24.81;61.69
69570;BME280;56781;42.292;23.146;2022-08-11T07:55:13;95592.56;;;25.07;61.08
69570;BME280;56781;42.292;23.146;2022-08-11T07:57:46;95598.44;;;25.09;61.68
69570;BME280;56781;42.292;23.146;2022-08-11T08:00:48;95613.31;;;25.01;62.07
69570;BME280;56781;42.292;23.146;2022-08-11T08:03:36;95556.56;;;24.98;63.14
69570;BME280;56781;42.292;23.146;2022-08-11T08:06:23;95605.44;;;25.60;63.61
69570;BME280;56781;42.292;23.146;2022-08-11T08:09:11;95593.75;;;25.20;61.84
69570;BME280;56781;42.292;23.146;2022-08-11T08:11:59;95605.09;;;25.37;64.39
69570;BME280;56781;42.292;23.146;2022-08-11T08:14:46;95597.19;;;25.75;63.48
69570;BME280;56781;42.292;23.146;2022-08-11T08:17:32;95605.81;;;25.77;62.70
69570;BME280;56781;42.292;23.146;2022-08-11T08:20:47;95583.06;;;25.80;63.10
69570;BME280;56781;42.292;23.146;2022-08-11T08:23:17;95605.19;;;26.32;61.99
69570;BME280;56781;42.292;23.146;2022-08-11T08:26:02;95587.13;;;26.42;61.46
69570;BME280;56781;42.292;23.146;2022-08-11T08:28:31;95545.78;;;25.97;61.29
69570;BME280;56781;42.292;23.146;2022-08-11T08:30:59;95585.56;;;26.37;58.79
69570;BME280;56781;42.292;23.146;2022-08-11T08:33:30;95547.16;;;26.30;59.77
69570;BME280;56781;42.292;23.146;2022-08-11T08:36:00;95589.41;;;26.50;58.18
69570;BME280;56781;42.292;23.146;2022-08-11T08:38:48;95579.16;;;26.62;59.33
69570;BME280;56781;42.292;23.146;2022-08-11T08:41:21;95579.59;;;26.60;58.88
69570;BME280;56781;42.292;23.146;2022-08-11T08:43:53;95533.81;;;26.39;62.80
69570;BME280;56781;42.292;23.146;2022-08-11T08:46:43;95582.97;;;26.79;55.25
69570;BME280;56781;42.292;23.146;2022-08-11T08:49:17;95558.44;;;26.53;53.46
69570;BME280;56781;42.292;23.146;2022-08-11T08:51:48;95581.09;;;26.65;56.93
69570;BME280;56781;42.292;23.146;2022-08-11T08:54:32;95530.84;;;26.08;55.08
69570;BME280;56781;42.292;23.146;2022-08-11T08:57:08;95572.78;;;26.05;55.25
69570;BME280;56781;42.292;23.146;2022-08-11T08:59:38;95558.72;;;26.03;53.88
69570;BME280;56781;42.292;23.146;2022-08-11T09:02:17;95577.31;;;26.44;56.24
69570;BME280;56781;42.292;23.146;2022-08-11T09:05:01;95561.53;;;26.59;55.76
69570;BME280;56781;42.292;23.146;2022-08-11T09:07:30;95553.28;;;26.63;53.37
69570;BME280;56781;42.292;23.146;2022-08-11T09:10:07;95552.91;;;26.61;52.93
69570;BME280;56781;42.292;23.146;2022-08-11T09:12:37;95535.06;;;26.24;52.78
69570;BME280;56781;42.292;23.146;2022-08-11T09:15:05;95506.06;;;26.23;55.85
69570;BME280;56781;42.292;23.146;2022-08-11T09:17:38;95526.25;;;26.54;54.11
69570;BME280;56781;42.292;23.146;2022-08-11T09:20:07;95557.13;;;26.72;53.13
69570;BME280;56781;42.292;23.146;2022-08-11T09:22:38;95557.91;;;26.77;52.82
69570;BME280;56781;42.292;23.146;2022-08-11T09:25:45;95552.81;;;26.71;55.07
69570;BME280;56781;42.292;23.146;2022-08-11T09:28:31;95550.16;;;26.57;50.17
69570;BME280;56781;42.292;23.146;2022-08-11T09:30:59;95552.88;;;26.64;54.81
69570;BME280;56781;42.292;23.146;2022-08-11T09:33:27;95547.50;;;26.99;55.45
69570;BME280;56781;42.292;23.146;2022-08-11T09:35:56;95506.47;;;26.77;53.58
69570;BME280;56781;42.292;23.146;2022-08-11T09:38:44;95542.72;;;27.06;51.65
69570;BME280;56781;42.292;23.146;2022-08-11T09:41:30;95543.25;;;26.90;55.29
69570;BME280;56781;42.292;23.146;2022-08-11T09:44:18;95500.34;;;26.59;50.61
69570;BME280;56781;42.292;23.146;2022-08-11T09:47:04;95530.63;;;26.96;53.01
69570;BME280;56781;42.292;23.146;2022-08-11T09:49:44;95506.78;;;26.90;52.35
69570;BME280;56781;42.292;23.146;2022-08-11T09:52:12;95503.84;;;27.08;53.03
69570;BME280;56781;42.292;23.146;2022-08-11T09:54:43;95526.69;;;26.97;48.93
69570;BME280;56781;42.292;23.146;2022-08-11T09:57:16;95502.63;;;26.67;50.52
69570;BME280;56781;42.292;23.146;2022-08-11T10:00:07;95504.31;;;26.99;52.27
69570;BME280;56781;42.292;23.146;2022-08-11T10:02:44;95516.47;;;27.02;51.72
69570;BME280;56781;42.292;23.146;2022-08-11T10:05:14;95520.28;;;27.15;54.92
69570;BME280;56781;42.292;23.146;2022-08-11T10:08:03;95507.78;;;27.07;49.83
69570;BME280;56781;42.292;23.146;2022-08-11T10:10:35;95512.78;;;27.15;53.76
69570;BME280;56781;42.292;23.146;2022-08-11T10:13:05;95495.34;;;26.91;50.96
69570;BME280;56781;42.292;23.146;2022-08-11T10:15:54;95508.66;;;26.96;50.03
69570;BME280;56781;42.292;23.146;2022-08-11T10:18:40;95500.25;;;27.18;48.58
69570;BME280;56781;42.292;23.146;2022-08-11T10:21:11;95506.41;;;27.29;54.67
69570;BME280;56781;42.292;23.146;2022-08-11T10:23:41;95458.16;;;26.83;47.74
69570;BME280;56781;42.292;23.146;2022-08-11T10:26:32;95503.09;;;27.04;50.27
69570;BME280;56781;42.292;23.146;2022-08-11T10:29:22;95456.38;;;27.04;50.87
69570;BME280;56781;42.292;23.146;2022-08-11T10:32:12;95495.78;;;27.31;47.27
69570;BME280;56781;42.292;23.146;2022-08-11T10:35:06;95498.41;;;27.01;51.56
69570;BME280;56781;42.292;23.146;2022-08-11T10:37:35;95484.41;;;26.88;49.40
69570;BME280;56781;42.292;23.146;2022-08-11T10:40:23;95482.72;;;26.97;49.61
69570;BME280;56781;42.292;23.146;2022-08-11T10:42:53;95487.56;;;26.86;50.12
69570;BME280;56781;42.292;23.146;2022-08-11T10:45:34;95462.81;;;26.90;48.72
69570;BME280;56781;42.292;23.146;2022-08-11T10:48:41;95471.41;;;27.33;50.54
69570;BME280;56781;42.292;23.146;2022-08-11T10:51:08;95476.38;;;27.46;50.04
69570;BME280;56781;42.292;23.146;2022-08-11T10:54:01;95461.09;;;27.41;51.31
69570;BME280;56781;42.292;23.146;2022-08-11T10:56:46;95466.25;;;27.35;47.99
69570;BME280;56781;42.292;23.146;2022-08-11T10:59:32;95451.13;;;27.20;48.30
69570;BME280;56781;42.292;23.146;2022-08-11T11:02:01;95469.75;;;27.39;48.74
69570;BME280;56781;42.292;23.146;2022-08-11T11:04:36;95470.53;;;27.40;48.79
69570;BME280;56781;42.292;23.146;2022-08-11T11:07:12;95445.09;;;27.32;46.87
69570;BME280;56781;42.292;23.146;2022-08-11T11:09:50;95469.78;;;27.36;46.85
69570;BME280;56781;42.292;23.146;2022-08-11T11:12:24;95462.41;;;27.29;50.47
69570;BME280;56781;42.292;23.146;2022-08-11T11:15:21;95455.72;;;27.30;46.01
69570;BME280;56781;42.292;23.146;2022-08-11T11:18:14;95456.75;;;27.44;49.20
69570;BME280;56781;42.292;23.146;2022-08-11T11:20:53;95415.22;;;27.34;48.02
69570;BME280;56781;42.292;23.146;2022-08-11T11:23:26;95454.81;;;27.71;46.20
69570;BME280;56781;42.292;23.146;2022-08-11T11:31:33;95450.38;;;27.50;48.31
69570;BME280;56781;42.292;23.146;2022-08-11T11:36:51;95456.06;;;27.67;51.86
69570;BME280;56781;42.292;23.146;2022-08-11T11:39:22;95450.72;;;27.87;49.28
69570;BME280;56781;42.292;23.146;2022-08-11T11:41:52;95432.09;;;27.67;46.81
69570;BME280;56781;42.292;23.146;2022-08-11T11:44:21;95424.63;;;27.68;49.92
69570;BME280;56781;42.292;23.146;2022-08-11T11:46:49;95443.88;;;27.37;50.21
69570;BME280;56781;42.292;23.146;2022-08-11T11:49:19;95443.25;;;27.22;48.34
69570;BME280;56781;42.292;23.146;2022-08-11T11:51:49;95422.50;;;27.14;47.24
69570;BME280;56781;42.292;23.146;2022-08-11T11:54:23;95412.56;;;27.27;46.68
69570;BME280;56781;42.292;23.146;2022-08-11T11:56:52;95388.88;;;27.03;46.79
69570;BME280;56781;42.292;23.146;2022-08-11T11:59:21;95425.13;;;27.28;47.48
69570;BME280;56781;42.292;23.146;2022-08-11T12:02:08;95397.72;;;27.21;46.15
69570;BME280;56781;42.292;23.146;2022-08-11T12:04:40;95433.38;;;27.59;47.98
69570;BME280;56781;42.292;23.146;2022-08-11T12:07:09;95385.97;;;27.17;42.20
69570;BME280;56781;42.292;23.146;2022-08-11T12:09:56;95376.56;;;27.14;49.64
69570;BME280;56781;42.292;23.146;2022-08-11T12:12:24;95430.19;;;27.64;48.30
69570;BME280;56781;42.292;23.146;2022-08-11T12:15:11;95401.84;;;27.67;44.58
69570;BME280;56781;42.292;23.146;2022-08-11T12:17:38;95429.78;;;27.93;46.88
69570;BME280;56781;42.292;23.146;2022-08-11T12:20:06;95428.31;;;27.88;49.89
69570;BME280;56781;42.292;23.146;2022-08-11T12:22:55;95418.97;;;27.78;42.77
69570;BME280;56781;42.292;23.146;2022-08-11T12:26:17;95431.63;;;27.72;44.33
69570;BME280;56781;42.292;23.146;2022-08-11T12:29:04;95398.47;;;27.25;40.49
69570;BME280;56781;42.292;23.146;2022-08-11T12:31:32;95402.69;;;26.95;44.38
69570;BME280;56781;42.292;23.146;2022-08-11T12:34:03;95417.81;;;26.77;42.46
69570;BME280;56781;42.292;23.146;2022-08-11T12:36:34;95396.28;;;27.06;47.46
69570;BME280;56781;42.292;23.146;2022-08-11T12:39:05;95415.91;;;27.42;43.07
69570;BME280;56781;42.292;23.146;2022-08-11T12:41:49;95415.03;;;27.18;43.37
69570;BME280;56781;42.292;23.146;2022-08-11T12:44:36;95391.44;;;26.83;43.88
69570;BME280;56781;42.292;23.146;2022-08-11T12:47:22;95409.41;;;26.91;46.38
69570;BME280;56781;42.292;23.146;2022-08-11T12:49:50;95375.34;;;26.81;43.84
69570;BME280;56781;42.292;23.146;2022-08-11T12:52:52;95388.22;;;26.91;42.44
69570;BME280;56781;42.292;23.146;2022-08-11T12:55:22;95376.72;;;26.62;42.71
69570;BME280;56781;42.292;23.146;2022-08-11T12:58:29;95378.00;;;26.50;44.33
69570;BME280;56781;42.292;23.146;2022-08-11T13:00:56;95382.72;;;26.91;46.10
69570;BME280;56781;42.292;23.146;2022-08-11T13:03:41;95395.28;;;27.27;47.42
69570;BME280;56781;42.292;23.146;2022-08-11T13:06:27;95384.38;;;27.16;42.29
69570;BME280;56781;42.292;23.146;2022-08-11T13:08:55;95403.97;;;27.22;43.35
69570;BME280;56781;42.292;23.146;2022-08-11T13:11:27;95384.66;;;27.29;45.15
69570;BME280;56781;42.292;23.146;2022-08-11T13:14:26;95378.25;;;27.39;41.45
69570;BME280;56781;42.292;23.146;2022-08-11T13:16:53;95393.50;;;27.44;41.02
69570;BME280;56781;42.292;23.146;2022-08-11T13:19:41;95394.47;;;27.30;44.86
69570;BME280;56781;42.292;23.146;2022-08-11T13:22:17;95372.91;;;26.90;40.63
69570;BME280;56781;42.292;23.146;2022-08-11T13:24:44;95399.31;;;26.81;45.16
69570;BME280;56781;42.292;23.146;2022-08-11T13:27:15;95386.63;;;26.49;39.29
69570;BME280;56781;42.292;23.146;2022-08-11T13:29:45;95403.53;;;26.47;42.44
69570;BME280;56781;42.292;23.146;2022-08-11T13:32:13;95405.44;;;26.58;43.11
69570;BME280;56781;42.292;23.146;2022-08-11T13:34:42;95383.88;;;26.49;45.94
69570;BME280;56781;42.292;23.146;2022-08-11T13:37:11;95394.25;;;26.79;43.78
69570;BME280;56781;42.292;23.146;2022-08-11T13:39:42;95387.94;;;26.82;45.50
69570;BME280;56781;42.292;23.146;2022-08-11T13:42:14;95365.84;;;26.89;45.03
69570;BME280;56781;42.292;23.146;2022-08-11T13:44:46;95401.28;;;27.18;46.94
69570;BME280;56781;42.292;23.146;2022-08-11T13:47:14;95390.34;;;26.73;48.17
69570;BME280;56781;42.292;23.146;2022-08-11T13:49:42;95394.53;;;26.47;49.58
69570;BME280;56781;42.292;23.146;2022-08-11T13:52:14;95390.38;;;26.24;49.98
69570;BME280;56781;42.292;23.146;2022-08-11T13:54:42;95380.31;;;26.11;49.13
69570;BME280;56781;42.292;23.146;2022-08-11T13:57:12;95380.03;;;25.98;48.98
69570;BME280;56781;42.292;23.146;2022-08-11T14:00:03;95356.22;;;25.77;49.27
69570;BME280;56781;42.292;23.146;2022-08-11T14:02:50;95397.75;;;25.75;48.11
69570;BME280;56781;42.292;23.146;2022-08-11T14:05:23;95387.16;;;25.81;48.71
69570;BME280;56781;42.292;23.146;2022-08-11T14:07:54;95322.38;;;25.42;49.16
69570;BME280;56781;42.292;23.146;2022-08-11T14:10:27;95380.88;;;25.84;48.06
69570;BME280;56781;42.292;23.146;2022-08-11T14:13:18;95320.69;;;25.59;48.81
69570;BME280;56781;42.292;23.146;2022-08-11T14:16:34;95346.38;;;25.83;48.23
69570;BME280;56781;42.292;23.146;2022-08-11T14:19:06;95347.19;;;25.87;47.84
69570;BME280;56781;42.292;23.146;2022-08-11T14:21:39;95392.09;;;26.07;49.77
69570;BME280;56781;42.292;23.146;2022-08-11T14:24:37;95348.31;;;25.93;47.88
69570;BME280;56781;42.292;23.146;2022-08-11T14:27:10;95387.19;;;26.33;46.18
69570;BME280;56781;42.292;23.146;2022-08-11T14:29:58;95385.22;;;26.34;47.49
69570;BME280;56781;42.292;23.146;2022-08-11T14:32:25;95393.72;;;26.46;47.73
69570;BME280;56781;42.292;23.146;2022-08-11T14:34:53;95371.41;;;26.41;48.63
69570;BME280;56781;42.292;23.146;2022-08-11T14:37:22;95389.03;;;26.47;45.51
69570;BME280;56781;42.292;23.146;2022-08-11T14:39:57;95386.72;;;26.38;46.51
69570;BME280;56781;42.292;23.146;2022-08-11T14:42:29;95392.59;;;26.40;45.83
69570;BME280;56781;42.292;23.146;2022-08-11T14:45:15;95389.94;;;26.33;46.33
69570;BME280;56781;42.292;23.146;2022-08-11T14:48:21;95382.91;;;26.28;46.94
69570;BME280;56781;42.292;23.146;2022-08-11T14:50:49;95379.06;;;26.19;46.45
69570;BME280;56781;42.292;23.146;2022-08-11T14:53:16;95386.94;;;26.13;47.29
69570;BME280;56781;42.292;23.146;2022-08-11T14:55:44;95373.78;;;25.94;47.95
69570;BME280;56781;42.292;23.146;2022-08-11T14:58:31;95386.78;;;25.79;50.78
69570;BME280;56781;42.292;23.146;2022-08-11T15:01:00;95387.34;;;25.52;50.33
69570;BME280;56781;42.292;23.146;2022-08-11T15:03:30;95380.41;;;25.26;49.18
69570;BME280;56781;42.292;23.146;2022-08-11T15:06:00;95386.25;;;25.32;48.76
69570;BME280;56781;42.292;23.146;2022-08-11T15:08:29;95374.97;;;25.15;49.07
69570;BME280;56781;42.292;23.146;2022-08-11T15:11:17;95383.59;;;25.07;49.13
69570;BME280;56781;42.292;23.146;2022-08-11T15:14:05;95378.16;;;24.96;49.72
69570;BME280;56781;42.292;23.146;2022-08-11T15:16:35;95390.63;;;25.04;50.79
69570;BME280;56781;42.292;23.146;2022-08-11T15:19:22;95395.72;;;25.16;49.52
69570;BME280;56781;42.292;23.146;2022-08-11T15:21:50;95393.72;;;25.28;48.66
69570;BME280;56781;42.292;23.146;2022-08-11T15:24:36;95333.16;;;24.93;48.92
69570;BME280;56781;42.292;23.146;2022-08-11T15:27:06;95390.53;;;25.36;49.80
69570;BME280;56781;42.292;23.146;2022-08-11T15:29:53;95364.81;;;25.09;50.42
69570;BME280;56781;42.292;23.146;2022-08-11T15:33:03;95403.16;;;25.05;50.86
69570;BME280;56781;42.292;23.146;2022-08-11T15:35:51;95389.56;;;24.69;51.85
69570;BME280;56781;42.292;23.146;2022-08-11T15:38:45;95382.94;;;24.63;50.50
69570;BME280;56781;42.292;23.146;2022-08-11T15:41:15;95375.13;;;24.58;51.83
69570;BME280;56781;42.292;23.146;2022-08-11T15:44:05;95353.25;;;24.44;51.69
69570;BME280;56781;42.292;23.146;2022-08-11T15:47:14;95386.09;;;24.47;52.18
69570;BME280;56781;42.292;23.146;2022-08-11T15:49:44;95391.53;;;24.37;53.79
69570;BME280;56781;42.292;23.146;2022-08-11T15:52:42;95398.22;;;24.46;54.11
69570;BME280;56781;42.292;23.146;2022-08-11T15:55:10;95408.34;;;24.42;53.64
69570;BME280;56781;42.292;23.146;2022-08-11T15:57:38;95405.63;;;24.35;54.67
69570;BME280;56781;42.292;23.146;2022-08-11T16:00:24;95403.66;;;24.39;54.30
69570;BME280;56781;42.292;23.146;2022-08-11T16:03:11;95386.84;;;24.55;52.77
69570;BME280;56781;42.292;23.146;2022-08-11T16:06:18;95382.53;;;24.61;54.06
69570;BME280;56781;42.292;23.146;2022-08-11T16:08:50;95378.97;;;24.75;54.08
69570;BME280;56781;42.292;23.146;2022-08-11T16:11:22;95377.41;;;24.77;52.09
69570;BME280;56781;42.292;23.146;2022-08-11T16:13:51;95385.25;;;24.72;52.19
69570;BME280;56781;42.292;23.146;2022-08-11T16:16:38;95354.00;;;24.48;53.42
69570;BME280;56781;42.292;23.146;2022-08-11T16:19:06;95377.44;;;24.70;52.92
69570;BME280;56781;42.292;23.146;2022-08-11T16:21:37;95375.13;;;24.54;52.88
69570;BME280;56781;42.292;23.146;2022-08-11T16:24:08;95379.03;;;24.53;53.44
69570;BME280;56781;42.292;23.146;2022-08-11T16:26:57;95397.81;;;24.62;53.39
69570;BME280;56781;42.292;23.146;2022-08-11T16:29:41;95407.19;;;24.47;53.70
69570;BME280;56781;42.292;23.146;2022-08-11T16:32:16;95389.19;;;24.31;54.29
69570;BME280;56781;42.292;23.146;2022-08-11T16:34:50;95396.22;;;24.29;54.42
69570;BME280;56781;42.292;23.146;2022-08-11T16:37:37;95404.44;;;24.22;54.77
69570;BME280;56781;42.292;23.146;2022-08-11T16:40:31;95409.13;;;24.07;55.32
69570;BME280;56781;42.292;23.146;2022-08-11T16:43:00;95414.19;;;23.98;56.21
69570;BME280;56781;42.292;23.146;2022-08-11T16:45:47;95410.31;;;23.92;56.45
69570;BME280;56781;42.292;23.146;2022-08-11T16:48:35;95389.13;;;23.63;57.01
69570;BME280;56781;42.292;23.146;2022-08-11T16:51:10;95409.03;;;23.64;56.90
69570;BME280;56781;42.292;23.146;2022-08-11T16:53:38;95422.31;;;23.62;57.94
69570;BME280;56781;42.292;23.146;2022-08-11T16:56:29;95418.00;;;23.54;57.51